createdAt,value
2022-08-30T00:03:17.964Z,46.341
2022-08-30T00:08:19.717Z,50.80356
2022-08-30T00:13:21.399Z,52.88951
2022-08-30T00:18:24.520Z,55.55524
2022-08-30T00:23:26.466Z,55.62789
2022-08-30T00:28:27.911Z,57.63846
2022-08-30T00:33:29.571Z,56.72834
2022-08-30T00:38:31.165Z,60.57788
2022-08-30T00:43:32.830Z,60.69567
2022-08-30T00:48:34.881Z,60.71234
2022-08-30T00:53:36.627Z,64.25571
2022-08-30T00:58:38.055Z,65.11891
2022-08-30T01:03:39.943Z,67.45976
2022-08-30T01:08:41.616Z,68.5666
2022-08-30T01:13:43.146Z,69.22072
2022-08-30T01:18:45.210Z,72.61883
2022-08-30T01:23:47.807Z,76.18633
2022-08-30T01:28:50.106Z,74.81015
2022-08-30T01:33:52.197Z,78.98121
2022-08-30T01:38:54.411Z,81.04655
2022-08-30T01:43:56.345Z,81.03403
2022-08-30T01:48:58.813Z,82.12736
2022-08-30T01:54:00.613Z,83.19661
2022-08-30T01:59:03.070Z,82.7441
2022-08-30T02:04:05.263Z,79.07981
2022-08-30T02:09:07.241Z,81.70229
2022-08-30T02:14:08.677Z,82.16715
2022-08-30T02:19:10.436Z,83.67166
2022-08-30T02:24:14.376Z,83.69828
2022-08-30T02:29:16.446Z,82.6686
2022-08-30T02:34:18.195Z,84.84726
2022-08-30T02:39:19.961Z,84.88126
2022-08-30T02:44:21.753Z,87.56728
2022-08-30T02:49:33.284Z,88.96341
2022-08-30T02:54:35.884Z,89.10764
2022-08-30T02:59:37.727Z,89.59368
2022-08-30T03:04:40.818Z,95.42548
2022-08-30T03:09:42.701Z,96.64696
2022-08-30T03:14:44.596Z,94.01925
2022-08-30T03:19:46.648Z,100
2022-08-30T03:24:48.641Z,99.98068
2022-08-30T03:29:50.817Z,100
2022-08-30T03:34:52.750Z,99.76314
2022-08-30T03:39:54.498Z,100
2022-08-30T03:44:56.441Z,100
2022-08-30T03:49:58.703Z,100
2022-08-30T03:55:02.038Z,100
2022-08-30T04:00:04.048Z,100
2022-08-30T04:05:05.936Z,100
2022-08-30T04:10:07.779Z,100
2022-08-30T04:15:09.237Z,100
2022-08-30T04:20:11.509Z,100
2022-08-30T04:25:15.833Z,100
2022-08-30T04:30:17.717Z,100
2022-08-30T04:35:19.402Z,100
2022-08-30T04:40:21.468Z,100
2022-08-30T04:45:23.741Z,100
2022-08-30T04:50:25.874Z,100
2022-08-30T04:55:27.838Z,100
2022-08-30T05:00:29.531Z,100
2022-08-30T05:05:31.241Z,100
2022-08-30T05:10:33.026Z,100
2022-08-30T05:15:34.801Z,100
2022-08-30T05:20:37.600Z,100
2022-08-30T05:25:39.537Z,100
2022-08-30T05:30:41.379Z,100
2022-08-30T05:35:43.264Z,100
2022-08-30T05:40:44.957Z,100
2022-08-30T05:45:47.134Z,100
2022-08-30T05:50:49.157Z,100
2022-08-30T05:55:51.068Z,100
2022-08-30T06:00:52.698Z,100
2022-08-30T06:05:54.317Z,99.25505
2022-08-30T06:10:55.759Z,96.21235
2022-08-30T06:15:57.405Z,96.64237
2022-08-30T06:20:59.316Z,95.60038
2022-08-30T06:26:00.783Z,92.70735
2022-08-30T06:31:02.345Z,92.89914
2022-08-30T06:36:06.046Z,91.60953
2022-08-30T06:41:07.642Z,88.38334
2022-08-30T06:46:09.313Z,89.8736
2022-08-30T06:51:12.004Z,85.1339
2022-08-30T06:56:16.540Z,81.33669
2022-08-30T07:01:18.455Z,80.37012
2022-08-30T07:06:20.369Z,77.87048
2022-08-30T07:11:23.651Z,80.31889
2022-08-30T07:16:27.179Z,78.79147
2022-08-30T07:21:29.481Z,76.27222
2022-08-30T07:26:31.237Z,74.543
2022-08-30T07:31:33.424Z,73.50023
2022-08-30T07:36:35.513Z,73.40233
2022-08-30T07:41:37.259Z,71.05944
2022-08-30T07:46:39.085Z,70.97046
2022-08-30T07:51:42.123Z,69.43976
2022-08-30T07:56:43.919Z,67.20699
2022-08-30T08:01:45.883Z,65.86955
2022-08-30T08:06:47.923Z,63.56744
2022-08-30T08:11:49.624Z,63.94175
2022-08-30T08:16:51.278Z,63.9866
2022-08-30T08:22:15.313Z,61.57358
2022-08-30T08:27:21.923Z,59.58067
2022-08-30T08:32:23.412Z,56.27655
2022-08-30T08:37:26.740Z,58.24136
2022-08-30T08:42:29.727Z,58.10258
2022-08-30T08:47:31.487Z,55.48327
2022-08-30T08:52:34.832Z,54.57976
2022-08-30T08:57:36.821Z,51.43252
2022-08-30T09:02:38.595Z,51.06243
2022-08-30T09:07:40.419Z,52.49378
2022-08-30T09:12:42.205Z,52.19879
2022-08-30T09:17:44.375Z,43.14211
2022-08-30T09:22:46.878Z,46.73022
2022-08-30T09:27:49.990Z,42.0044
2022-08-30T09:32:52.342Z,42.70516
2022-08-30T09:37:54.015Z,47.73626
2022-08-30T09:42:55.650Z,46.18919
2022-08-30T09:47:57.119Z,42.8764
2022-08-30T09:53:00.147Z,46.62943
2022-08-30T09:58:01.601Z,45.2805
2022-08-30T10:03:03.482Z,45.72022
2022-08-30T10:08:05.366Z,48.63783
2022-08-30T10:13:07.383Z,46.36949
2022-08-30T10:18:08.875Z,47.92314
2022-08-30T10:23:10.682Z,46.89465
2022-08-30T10:28:12.308Z,48.24763
2022-08-30T10:33:13.786Z,45.89134
2022-08-30T10:38:15.682Z,43.71009
2022-08-30T10:43:17.575Z,42.8288
2022-08-30T10:48:19.846Z,43.83028
2022-08-30T10:53:21.805Z,43.11658
2022-08-30T10:58:23.716Z,44.84199
2022-08-30T11:03:26.463Z,46.04783
2022-08-30T11:08:28.502Z,44.29067
2022-08-30T11:13:30.268Z,40.60543
2022-08-30T11:18:32.037Z,41.77015
2022-08-30T11:23:33.720Z,41.25831
2022-08-30T11:28:35.220Z,45.02842
2022-08-30T11:33:36.705Z,42.86172
2022-08-30T11:38:38.467Z,43.76514
2022-08-30T11:43:40.273Z,41.82428
2022-08-30T11:48:53.597Z,46.78581
2022-08-30T11:53:56.660Z,44.20486
2022-08-30T11:58:59.049Z,44.75191
2022-08-30T12:04:00.911Z,45.04158
2022-08-30T12:09:03.230Z,45.24398
2022-08-30T12:14:11.570Z,44.96526
2022-08-30T12:19:15.848Z,44.43105
2022-08-30T12:24:20.855Z,46.14535
2022-08-30T12:29:22.669Z,44.22869
2022-08-30T12:34:26.279Z,46.44797
2022-08-30T12:39:27.923Z,43.48034
2022-08-30T12:44:29.736Z,45.82693
2022-08-30T12:49:31.497Z,45.95465
2022-08-30T12:54:33.925Z,45.27489
2022-08-30T12:59:35.875Z,45.39693
2022-08-30T13:04:37.717Z,44.42775
2022-08-30T13:09:39.428Z,44.54796
2022-08-30T13:14:42.376Z,45.73892
2022-08-30T13:19:45.175Z,45.60931
2022-08-30T13:24:47.215Z,47.3559
2022-08-30T13:29:48.629Z,45.5658
2022-08-30T13:34:50.143Z,44.9385
2022-08-30T13:39:51.976Z,45.93586
2022-08-30T13:44:53.741Z,46.67694
2022-08-30T13:49:55.798Z,46.09658
2022-08-30T13:54:57.606Z,45.51777
2022-08-30T13:59:59.187Z,47.0515
2022-08-30T14:05:02.830Z,47.18648
2022-08-30T14:10:32.067Z,46.855
2022-08-30T14:15:34.706Z,47.59233
2022-08-30T14:20:40.755Z,49.32172
2022-08-30T14:25:46.261Z,49.12556
2022-08-30T14:30:48.138Z,49.02509
2022-08-30T14:35:52.432Z,49.09289
2022-08-30T14:40:55.400Z,50.46847
2022-08-30T14:45:57.291Z,50.05696
2022-08-30T14:50:59.237Z,50.62537
2022-08-30T14:56:01.829Z,50.40294
2022-08-30T15:01:04.647Z,50.90336
2022-08-30T15:06:07.276Z,51.18727
2022-08-30T15:11:09.482Z,52.17149
2022-08-30T15:16:11.327Z,54.39955
2022-08-30T15:21:13.120Z,54.43972
2022-08-30T15:26:14.817Z,54.60034
2022-08-30T15:31:16.379Z,54.16631
2022-08-30T15:36:17.861Z,55.15386
2022-08-30T15:41:20.026Z,57.12468
2022-08-30T15:46:21.601Z,58.23407
2022-08-30T15:51:24.246Z,57.01003
2022-08-30T15:56:26.291Z,59.24969
2022-08-30T16:01:30.607Z,59.24739
2022-08-30T16:06:32.453Z,60.42901
2022-08-30T16:11:34.223Z,61.17111
2022-08-30T16:16:36.263Z,62.14766
2022-08-30T16:21:38.388Z,62.13402
2022-08-30T16:26:40.407Z,62.97575
2022-08-30T16:31:42.779Z,65.05489
2022-08-30T16:36:44.285Z,65.34296
2022-08-30T16:41:46.874Z,65.27499
2022-08-30T16:46:53.190Z,65.82729
2022-08-30T16:51:55.400Z,66.60249
2022-08-30T16:56:58.168Z,65.59978
2022-08-30T17:01:59.652Z,66.26967
2022-08-30T17:07:01.146Z,67.34449
2022-08-30T17:12:03.724Z,67.0282
2022-08-30T17:17:05.702Z,67.31109
2022-08-30T17:22:08.749Z,66.68868
2022-08-30T17:27:11.254Z,69.36328
2022-08-30T17:32:13.299Z,70.26043
2022-08-30T17:37:14.882Z,70.90378
2022-08-30T17:42:16.729Z,72.44939
2022-08-30T17:47:19.227Z,72.72016
2022-08-30T17:52:20.788Z,70.66723
2022-08-30T17:57:23.027Z,74.48377
2022-08-30T18:02:27.827Z,74.27542
2022-08-30T18:07:32.006Z,74.87716
2022-08-30T18:12:34.440Z,75.31832
2022-08-30T18:17:36.405Z,74.94975
2022-08-30T18:22:38.264Z,74.25796
2022-08-30T18:27:40.402Z,75.37749
2022-08-30T18:32:42.549Z,75.4283
2022-08-30T18:37:44.865Z,76.3444
2022-08-30T18:42:46.479Z,75.42822
2022-08-30T18:47:47.937Z,77.39151
2022-08-30T18:52:50.178Z,78.73207
2022-08-30T18:57:52.373Z,75.60279
2022-08-30T19:02:56.207Z,77.09715
2022-08-30T19:07:57.908Z,78.34577
2022-08-30T19:12:59.912Z,77.54716
2022-08-30T19:18:01.782Z,80.91823
2022-08-30T19:23:19.616Z,81.88871
2022-08-30T19:28:25.921Z,79.64306
2022-08-30T19:33:27.482Z,78.39306
2022-08-30T19:38:29.259Z,77.77914
2022-08-30T19:43:30.920Z,79.94174
2022-08-30T19:48:34.252Z,80.82952
2022-08-30T19:53:37.344Z,80.7419
2022-08-30T19:58:39.372Z,80.18548
2022-08-30T20:03:41.231Z,78.73695
2022-08-30T20:08:42.732Z,83.92986
2022-08-30T20:13:44.407Z,83.8425
2022-08-30T20:18:46.054Z,83.91841
2022-08-30T20:23:47.910Z,81.84347
2022-08-30T20:28:49.926Z,82.7692
2022-08-30T20:33:51.874Z,85.61444
2022-08-30T20:38:53.642Z,84.93026
2022-08-30T20:43:55.673Z,88.38016
2022-08-30T20:48:57.132Z,90.09494
2022-08-30T20:53:58.675Z,92.66786
2022-08-30T20:59:00.436Z,91.30595
2022-08-30T21:04:02.044Z,87.66154
2022-08-30T21:09:03.497Z,93.4803
2022-08-30T21:14:05.228Z,91.43192
2022-08-30T21:19:06.670Z,92.33119
2022-08-30T21:24:08.122Z,93.6556
2022-08-30T21:29:09.980Z,95.65995
2022-08-30T21:34:17.183Z,93.6145
2022-08-30T21:39:19.334Z,94.06232
2022-08-30T21:44:20.769Z,94.79321
2022-08-30T21:49:22.564Z,97.50655
2022-08-30T21:54:24.340Z,98.35812
2022-08-30T21:59:26.281Z,95.25302
2022-08-30T22:04:28.048Z,94.77274
2022-08-30T22:09:29.923Z,96.43593
2022-08-30T22:14:31.904Z,97.79318
2022-08-30T22:19:34.281Z,96.41813
2022-08-30T22:24:36.449Z,96.08322
2022-08-30T22:29:39.358Z,96.98094
2022-08-30T22:34:41.303Z,98.71665
2022-08-30T22:39:43.084Z,98.84399
2022-08-30T22:44:45.020Z,100
2022-08-30T22:49:46.806Z,99.65756
2022-08-30T22:54:48.685Z,100
2022-08-30T22:59:50.684Z,100
2022-08-30T23:04:52.450Z,96.60504
2022-08-30T23:09:54.194Z,96.70941
2022-08-30T23:14:56.198Z,99.50533
2022-08-30T23:19:57.999Z,96.82436
2022-08-30T23:24:59.771Z,97.13788
2022-08-30T23:30:01.870Z,98.09513
2022-08-30T23:35:03.664Z,96.22481
2022-08-30T23:40:05.475Z,96.9803
2022-08-30T23:45:07.343Z,97.95061
2022-08-30T23:50:09.210Z,98.38917
2022-08-30T23:55:10.868Z,96.09505
